createdAt,value
2018-03-19T00:01:00.491Z,100831.12
2018-03-19T00:02:04.545Z,100828.06
2018-03-19T00:03:07.895Z,100828.51
2018-03-19T00:04:11.307Z,100823.29
2018-03-19T00:05:14.650Z,100825.39
2018-03-19T00:06:17.963Z,100825.02
2018-03-19T00:07:21.409Z,100825.92
2018-03-19T00:08:24.703Z,100820.30
2018-03-19T00:09:28.044Z,100822.91
2018-03-19T00:10:31.617Z,100818.56
2018-03-19T00:11:34.992Z,100820.80
2018-03-19T00:12:38.404Z,100814.27
2018-03-19T00:13:41.738Z,100820.37
2018-03-19T00:14:45.056Z,100819.94
2018-03-19T00:15:48.357Z,100817.78
2018-03-19T00:16:51.914Z,100819.09
2018-03-19T00:17:55.279Z,100819.09
2018-03-19T00:18:58.817Z,100825.14
2018-03-19T00:20:02.199Z,100819.09
2018-03-19T00:21:06.481Z,100818.68
2018-03-19T00:22:11.416Z,100821.34
2018-03-19T00:23:14.859Z,100814.39
2018-03-19T00:24:18.191Z,100815.72
2018-03-19T00:25:21.588Z,100818.35
2018-03-19T00:26:24.948Z,100814.09
2018-03-19T00:27:28.237Z,100814.53
2018-03-19T00:28:31.653Z,100818.45
2018-03-19T00:29:35.860Z,100817.15
2018-03-19T00:30:39.198Z,100817.17
2018-03-19T00:31:44.537Z,100820.23
2018-03-19T00:32:47.896Z,100815.03
2018-03-19T00:33:52.466Z,100809.86
2018-03-19T00:34:55.943Z,100809.86
2018-03-19T00:36:00.072Z,100812.95
2018-03-19T00:37:03.390Z,100814.25
2018-03-19T00:38:07.460Z,100805.97
2018-03-19T00:39:10.907Z,100807.30
2018-03-19T00:40:15.253Z,100818.19
2018-03-19T00:41:18.557Z,100808.62
2018-03-19T00:42:21.896Z,100816.03
2018-03-19T00:43:25.442Z,100808.62
2018-03-19T00:44:28.764Z,100806.45
2018-03-19T00:45:32.174Z,100804.34
2018-03-19T00:46:35.556Z,100806.97
2018-03-19T00:47:38.861Z,100806.54
2018-03-19T00:48:43.104Z,100807.42
2018-03-19T00:49:46.448Z,100802.66
2018-03-19T00:50:51.924Z,100813.09
2018-03-19T00:51:55.883Z,100806.56
2018-03-19T00:52:59.159Z,100809.63
2018-03-19T00:54:03.572Z,100811.36
2018-03-19T00:55:07.000Z,100801.42
2018-03-19T00:56:10.639Z,100807.54
2018-03-19T00:57:14.037Z,100808.84
2018-03-19T00:58:18.180Z,100800.16
2018-03-19T00:59:23.567Z,100803.22
2018-03-19T01:00:26.980Z,100807.13
2018-03-19T01:01:30.380Z,100806.70
2018-03-19T01:02:34.439Z,100803.67
2018-03-19T01:03:37.836Z,100804.15
2018-03-19T01:04:41.193Z,100808.46
2018-03-19T01:05:44.650Z,100802.84
2018-03-19T01:06:47.964Z,100799.81
2018-03-19T01:07:51.294Z,100806.33
2018-03-19T01:08:54.683Z,100808.09
2018-03-19T01:09:58.007Z,100806.78
2018-03-19T01:11:01.357Z,100803.31
2018-03-19T01:12:04.768Z,100795.08
2018-03-19T01:13:09.092Z,100803.36
2018-03-19T01:14:12.409Z,100796.02
2018-03-19T01:15:15.713Z,100802.16
2018-03-19T01:16:19.051Z,100796.95
2018-03-19T01:17:22.471Z,100792.67
2018-03-19T01:18:25.849Z,100793.13
2018-03-19T01:19:29.182Z,100800.98
2018-03-19T01:20:32.579Z,100798.41
2018-03-19T01:21:36.033Z,100789.27
2018-03-19T01:22:39.743Z,100795.40
2018-03-19T01:23:43.184Z,100791.94
2018-03-19T01:24:46.988Z,100788.04
2018-03-19T01:25:50.692Z,100792.38
2018-03-19T01:26:54.348Z,100794.97
2018-03-19T01:27:57.727Z,100794.16
2018-03-19T01:29:01.114Z,100793.30
2018-03-19T01:30:05.234Z,100807.23
2018-03-19T01:31:08.677Z,100801.61
2018-03-19T01:32:12.108Z,100790.75
2018-03-19T01:33:15.472Z,100798.52
2018-03-19T01:34:18.804Z,100796.34
2018-03-19T01:35:22.224Z,100797.70
2018-03-19T01:36:25.544Z,100796.39
2018-03-19T01:37:28.893Z,100796.87
2018-03-19T01:38:32.278Z,100796.91
2018-03-19T01:39:35.647Z,100800.02
2018-03-19T01:40:39.000Z,100797.01
2018-03-19T01:41:42.472Z,100797.45
2018-03-19T01:42:45.851Z,100795.72
2018-03-19T01:43:49.216Z,100797.03
2018-03-19T01:44:52.620Z,100802.30
2018-03-19T01:45:55.945Z,100800.52
2018-03-19T01:46:59.263Z,100800.06
2018-03-19T01:48:02.733Z,100802.67
2018-03-19T01:49:06.108Z,100798.31
2018-03-19T01:50:09.525Z,100794.83
2018-03-19T01:51:12.948Z,100804.83
2018-03-19T01:52:16.277Z,100795.30
2018-03-19T01:53:19.764Z,100795.34
2018-03-19T01:54:23.109Z,100797.08
2018-03-19T01:55:26.583Z,100798.83
2018-03-19T01:56:30.551Z,100799.73
2018-03-19T01:57:33.894Z,100796.29
2018-03-19T01:58:37.360Z,100802.38
2018-03-19T01:59:41.553Z,100795.48
2018-03-19T02:00:44.901Z,100794.63
2018-03-19T02:01:48.307Z,100790.31
2018-03-19T02:02:51.984Z,100790.31
2018-03-19T02:03:55.345Z,100795.16
2018-03-19T02:04:58.688Z,100793.42
2018-03-19T02:06:02.079Z,100791.19
2018-03-19T02:07:05.421Z,100795.10
2018-03-19T02:08:08.792Z,100787.66
2018-03-19T02:09:12.745Z,100794.19
2018-03-19T02:10:16.056Z,100788.56
2018-03-19T02:11:19.632Z,100791.19
2018-03-19T02:12:23.078Z,100792.13
2018-03-19T02:13:26.474Z,100789.96
2018-03-19T02:14:29.840Z,100792.56
2018-03-19T02:15:34.387Z,100785.19
2018-03-19T02:16:37.828Z,100786.52
2018-03-19T02:17:41.204Z,100789.20
2018-03-19T02:18:44.588Z,100790.13
2018-03-19T02:19:54.730Z,100785.78
2018-03-19T02:20:58.127Z,100780.68
2018-03-19T02:22:01.455Z,100788.93
2018-03-19T02:23:04.826Z,100783.73
2018-03-19T02:24:08.189Z,100782.91
2018-03-19T02:25:11.480Z,100788.16
2018-03-19T02:26:14.836Z,100786.84
2018-03-19T02:27:18.220Z,100782.08
2018-03-19T02:28:21.803Z,100791.21
2018-03-19T02:29:25.160Z,100791.25
2018-03-19T02:30:28.586Z,100787.84
2018-03-19T02:31:31.965Z,100786.52
2018-03-19T02:32:35.312Z,100790.00
2018-03-19T02:33:38.628Z,100793.03
2018-03-19T02:34:42.158Z,100789.13
2018-03-19T02:35:45.520Z,100797.83
2018-03-19T02:36:48.904Z,100790.00
2018-03-19T02:37:52.210Z,100788.22
2018-03-19T02:38:55.526Z,100787.31
2018-03-19T02:39:58.854Z,100789.92
2018-03-19T02:41:02.173Z,100792.11
2018-03-19T02:42:05.505Z,100796.42
2018-03-19T02:43:08.897Z,100792.95
2018-03-19T02:44:12.318Z,100796.83
2018-03-19T02:45:15.642Z,100795.09
2018-03-19T02:46:19.091Z,100789.83
2018-03-19T02:47:22.433Z,100789.37
2018-03-19T02:48:26.115Z,100799.81
2018-03-19T02:49:29.418Z,100796.87
2018-03-19T02:50:32.756Z,100809.06
2018-03-19T02:51:36.179Z,100800.00
2018-03-19T02:52:39.594Z,100796.58
2018-03-19T02:53:42.916Z,100804.97
2018-03-19T02:54:46.232Z,100799.33
2018-03-19T02:55:49.530Z,100801.12
2018-03-19T02:56:52.865Z,100802.00
2018-03-19T02:57:56.182Z,100802.87
2018-03-19T02:58:59.481Z,100799.83
2018-03-19T03:00:05.407Z,100805.47
2018-03-19T03:01:08.715Z,100807.67
2018-03-19T03:02:12.079Z,100804.20
2018-03-19T03:03:15.415Z,100798.98
2018-03-19T03:04:18.736Z,100803.76
2018-03-19T03:05:22.037Z,100806.39
2018-03-19T03:06:25.766Z,100804.32
2018-03-19T03:07:29.963Z,100802.22
2018-03-19T03:08:33.274Z,100798.77
2018-03-19T03:09:36.692Z,100800.93
2018-03-19T03:10:40.055Z,100804.39
2018-03-19T03:11:43.376Z,100802.25
2018-03-19T03:12:46.758Z,100814.41
2018-03-19T03:13:50.159Z,100809.22
2018-03-19T03:14:53.535Z,100804.00
2018-03-19T03:15:56.827Z,100809.72
2018-03-19T03:17:00.326Z,100804.95
2018-03-19T03:18:03.840Z,100804.95
2018-03-19T03:19:07.170Z,100801.94
2018-03-19T03:20:10.496Z,100807.58
2018-03-19T03:21:13.858Z,100808.05
2018-03-19T03:22:17.181Z,100813.31
2018-03-19T03:23:20.571Z,100808.05
2018-03-19T03:24:23.950Z,100809.80
2018-03-19T03:25:28.461Z,100806.32
2018-03-19T03:26:31.824Z,100808.55
2018-03-19T03:27:35.291Z,100802.05
2018-03-19T03:28:39.192Z,100819.41
2018-03-19T03:29:42.625Z,100808.55
2018-03-19T03:30:45.931Z,100806.39
2018-03-19T03:31:49.246Z,100802.93
2018-03-19T03:32:52.598Z,100815.52
2018-03-19T03:33:56.021Z,100814.25
2018-03-19T03:34:59.473Z,100808.16
2018-03-19T03:36:03.832Z,100816.91
2018-03-19T03:37:07.334Z,100814.70
2018-03-19T03:38:10.653Z,100808.14
2018-03-19T03:39:14.071Z,100807.63
2018-03-19T03:40:17.362Z,100802.39
2018-03-19T03:41:20.650Z,100810.55
2018-03-19T03:42:23.995Z,100808.80
2018-03-19T03:43:27.310Z,100807.51
2018-03-19T03:44:30.689Z,100810.09
2018-03-19T03:45:33.976Z,100810.59
2018-03-19T03:46:37.287Z,100807.60
2018-03-19T03:47:40.689Z,100806.41
2018-03-19T03:48:43.990Z,100806.08
2018-03-19T03:49:47.443Z,100811.76
2018-03-19T03:50:50.880Z,100811.41
2018-03-19T03:51:54.278Z,100814.92
2018-03-19T03:52:58.602Z,100807.55
2018-03-19T03:54:02.272Z,100814.13
2018-03-19T03:55:05.644Z,100816.75
2018-03-19T03:56:08.957Z,100809.89
2018-03-19T03:57:13.233Z,100804.27
2018-03-19T03:58:16.673Z,100811.68
2018-03-19T03:59:19.992Z,100810.37
2018-03-19T04:00:25.522Z,100812.11
2018-03-19T04:01:28.863Z,100812.61
2018-03-19T04:02:32.259Z,100818.70
2018-03-19T04:03:35.643Z,100807.01
2018-03-19T04:04:39.087Z,100809.19
2018-03-19T04:05:42.421Z,100819.23
2018-03-19T04:06:45.969Z,100818.40
2018-03-19T04:07:49.292Z,100812.78
2018-03-19T04:08:52.592Z,100823.20
2018-03-19T04:09:55.974Z,100821.09
2018-03-19T04:10:59.313Z,100825.48
2018-03-19T04:12:02.632Z,100823.41
2018-03-19T04:13:05.961Z,100827.40
2018-03-19T04:14:09.267Z,100823.09
2018-03-19T04:15:13.389Z,100824.05
2018-03-19T04:16:16.792Z,100829.74
2018-03-19T04:17:20.104Z,100828.08
2018-03-19T04:18:23.440Z,100829.84
2018-03-19T04:19:26.798Z,100828.12
2018-03-19T04:20:30.109Z,100835.08
2018-03-19T04:21:34.301Z,100832.05
2018-03-19T04:22:37.666Z,100824.28
2018-03-19T04:23:41.028Z,100828.65
2018-03-19T04:24:44.358Z,100831.77
2018-03-19T04:25:47.757Z,100834.00
2018-03-19T04:26:51.181Z,100832.36
2018-03-19T04:27:54.476Z,100829.77
2018-03-19T04:28:57.893Z,100839.38
2018-03-19T04:30:01.247Z,100832.91
2018-03-19T04:31:04.578Z,100835.59
2018-03-19T04:32:07.880Z,100831.72
2018-03-19T04:33:11.232Z,100828.25
2018-03-19T04:34:14.552Z,100829.98
2018-03-19T04:35:18.005Z,100827.36
2018-03-19T04:36:21.456Z,100831.70
2018-03-19T04:37:24.981Z,100832.14
2018-03-19T04:38:28.311Z,100831.70
2018-03-19T04:39:32.269Z,100829.97
2018-03-19T04:40:35.656Z,100830.39
2018-03-19T04:41:39.012Z,100834.84
2018-03-19T04:42:42.444Z,100833.96
2018-03-19T04:43:45.810Z,100838.74
2018-03-19T04:44:49.171Z,100829.23
2018-03-19T04:45:52.801Z,100831.02
2018-03-19T04:46:56.104Z,100832.34
2018-03-19T04:47:59.560Z,100833.21
2018-03-19T04:49:02.870Z,100831.50
2018-03-19T04:50:06.262Z,100832.47
2018-03-19T04:51:09.587Z,100839.52
2018-03-19T04:52:12.963Z,100841.28
2018-03-19T04:53:16.535Z,100837.44
2018-03-19T04:54:19.868Z,100836.56
2018-03-19T04:55:23.328Z,100856.55
2018-03-19T04:56:29.361Z,100843.61
2018-03-19T04:57:34.572Z,100843.66
2018-03-19T04:58:37.973Z,100837.16
2018-03-19T04:59:42.382Z,100840.61
2018-03-19T05:00:46.683Z,100845.05
2018-03-19T05:01:50.067Z,100845.98
2018-03-19T05:02:53.521Z,100834.81
2018-03-19T05:03:57.724Z,100845.76
2018-03-19T05:05:01.974Z,100838.84
2018-03-19T05:06:05.381Z,100841.46
2018-03-19T05:07:08.716Z,100835.36
2018-03-19T05:08:12.091Z,100833.14
2018-03-19T05:09:15.516Z,100836.16
2018-03-19T05:10:19.369Z,100837.02
2018-03-19T05:11:22.848Z,100842.25
2018-03-19T05:12:26.262Z,100854.83
2018-03-19T05:13:29.593Z,100845.36
2018-03-19T05:14:33.008Z,100849.34
2018-03-19T05:15:36.376Z,100848.44
2018-03-19T05:16:39.725Z,100850.66
2018-03-19T05:17:43.940Z,100846.34
2018-03-19T05:18:49.690Z,100845.50
2018-03-19T05:19:53.068Z,100850.69
2018-03-19T05:20:56.390Z,100842.02
2018-03-19T05:21:59.728Z,100848.09
2018-03-19T05:23:04.066Z,100848.10
2018-03-19T05:24:07.427Z,100849.02
2018-03-19T05:25:10.847Z,100847.72
2018-03-19T05:26:14.158Z,100848.61
2018-03-19T05:27:17.485Z,100846.91
2018-03-19T05:28:21.092Z,100851.73
2018-03-19T05:29:24.394Z,100851.73
2018-03-19T05:30:27.802Z,100864.74
2018-03-19T05:31:31.110Z,100849.57
2018-03-19T05:32:34.534Z,100852.20
2018-03-19T05:33:37.879Z,100856.16
2018-03-19T05:34:41.270Z,100854.37
2018-03-19T05:35:44.670Z,100855.65
2018-03-19T05:36:48.067Z,100858.25
2018-03-19T05:37:51.427Z,100861.28
2018-03-19T05:38:54.927Z,100864.31
2018-03-19T05:39:58.434Z,100861.30
2018-03-19T05:41:02.484Z,100866.52
2018-03-19T05:42:05.820Z,100867.39
2018-03-19T05:43:09.290Z,100866.97
2018-03-19T05:44:12.616Z,100870.42
2018-03-19T05:45:15.990Z,100866.48
2018-03-19T05:46:19.309Z,100865.13
2018-03-19T05:47:22.669Z,100867.27
2018-03-19T05:48:26.039Z,100868.14
2018-03-19T05:49:29.346Z,100869.88
2018-03-19T05:50:32.689Z,100873.77
2018-03-19T05:51:36.043Z,100877.23
2018-03-19T05:52:39.360Z,100875.91
2018-03-19T05:53:43.053Z,100874.61
2018-03-19T05:54:46.417Z,100875.87
2018-03-19T05:55:50.333Z,100876.27
2018-03-19T05:56:53.801Z,100881.91
2018-03-19T05:57:57.122Z,100879.72
2018-03-19T05:59:00.498Z,100879.28
2018-03-19T06:00:03.816Z,100881.83
2018-03-19T06:01:08.556Z,100882.66
2018-03-19T06:02:11.894Z,100889.18
2018-03-19T06:03:15.235Z,100888.31
2018-03-19T06:04:18.583Z,100888.67
2018-03-19T06:05:22.996Z,100885.14
2018-03-19T06:06:26.793Z,100889.78
2018-03-19T06:07:30.431Z,100896.58
2018-03-19T06:08:33.863Z,100893.89
2018-03-19T06:09:37.164Z,100892.11
2018-03-19T06:10:40.575Z,100891.69
2018-03-19T06:11:44.236Z,100886.03
2018-03-19T06:12:48.307Z,100891.62
2018-03-19T06:13:51.642Z,100889.52
2018-03-19T06:14:54.995Z,100887.77
2018-03-19T06:15:58.347Z,100893.86
2018-03-19T06:17:01.700Z,100891.27
2018-03-19T06:18:05.076Z,100893.44
2018-03-19T06:19:08.488Z,100890.04
2018-03-19T06:20:11.836Z,100897.44
2018-03-19T06:21:15.604Z,100893.61
2018-03-19T06:22:18.878Z,100898.00
2018-03-19T06:23:22.250Z,100896.28
2018-03-19T06:24:25.610Z,100894.97
2018-03-19T06:25:29.083Z,100898.00
2018-03-19T06:26:32.541Z,100898.89
2018-03-19T06:27:35.914Z,100897.19
2018-03-19T06:28:39.498Z,100895.41
2018-03-19T06:29:42.892Z,100901.49
2018-03-19T06:30:46.235Z,100897.14
2018-03-19T06:31:50.429Z,100901.82
2018-03-19T06:32:53.805Z,100896.17
2018-03-19T06:33:57.325Z,100900.05
2018-03-19T06:35:01.321Z,100898.73
2018-03-19T06:36:04.681Z,100903.87
2018-03-19T06:37:08.002Z,100907.25
2018-03-19T06:38:12.174Z,100908.55
2018-03-19T06:39:16.021Z,100908.06
2018-03-19T06:40:19.424Z,100904.54
2018-03-19T06:41:22.761Z,100903.22
2018-03-19T06:42:26.101Z,100904.51
2018-03-19T06:43:29.470Z,100909.66
2018-03-19T06:44:33.174Z,100904.84
2018-03-19T06:45:36.477Z,100904.75
2018-03-19T06:46:39.843Z,100911.23
2018-03-19T06:47:43.148Z,100909.84
2018-03-19T06:48:46.603Z,100905.00
2018-03-19T06:49:51.300Z,100906.27
2018-03-19T06:50:54.549Z,100911.02
2018-03-19T06:51:57.997Z,100918.34
2018-03-19T06:53:01.797Z,100912.27
2018-03-19T06:54:05.112Z,100907.55
2018-03-19T06:55:09.341Z,100912.36
2018-03-19T06:56:12.676Z,100912.04
2018-03-19T06:57:16.187Z,100917.77
2018-03-19T06:58:19.775Z,100915.23
2018-03-19T06:59:23.109Z,100913.11
2018-03-19T07:00:26.445Z,100922.31
2018-03-19T07:01:31.268Z,100912.50
2018-03-19T07:02:34.819Z,100917.33
2018-03-19T07:03:38.289Z,100920.43
2018-03-19T07:04:41.656Z,100919.94
2018-03-19T07:05:45.183Z,100920.34
2018-03-19T07:06:48.624Z,100922.92
2018-03-19T07:07:51.959Z,100928.06
2018-03-19T07:08:55.375Z,100926.73
2018-03-19T07:09:58.793Z,100924.04
2018-03-19T07:11:02.229Z,100923.53
2018-03-19T07:12:06.553Z,100928.16
2018-03-19T07:13:09.852Z,100925.34
2018-03-19T07:14:13.406Z,100926.45
2018-03-19T07:15:16.788Z,100924.18
2018-03-19T07:16:20.173Z,100931.36
2018-03-19T07:17:23.505Z,100936.88
2018-03-19T07:18:26.918Z,100934.59
2018-03-19T07:19:31.040Z,100924.91
2018-03-19T07:20:34.369Z,100935.29
2018-03-19T07:21:37.688Z,100930.55
2018-03-19T07:22:41.121Z,100921.44
2018-03-19T07:23:44.525Z,100929.61
2018-03-19T07:24:47.872Z,100929.58
2018-03-19T07:25:51.211Z,100938.70
2018-03-19T07:26:55.484Z,100933.86
2018-03-19T07:27:59.700Z,100928.62
2018-03-19T07:29:03.137Z,100928.55
2018-03-19T07:30:06.922Z,100937.17
2018-03-19T07:31:10.219Z,100937.56
2018-03-19T07:32:13.701Z,100934.92
2018-03-19T07:33:17.048Z,100934.06
2018-03-19T07:34:20.431Z,100941.44
2018-03-19T07:35:23.881Z,100935.78
2018-03-19T07:36:27.455Z,100938.75
2018-03-19T07:37:30.806Z,100935.67
2018-03-19T07:38:34.499Z,100941.75
2018-03-19T07:39:37.872Z,100940.38
2018-03-19T07:40:41.189Z,100938.61
2018-03-19T07:41:44.761Z,100937.39
2018-03-19T07:42:48.292Z,100938.30
2018-03-19T07:43:52.485Z,100939.69
2018-03-19T07:44:55.845Z,100927.11
2018-03-19T07:45:59.150Z,100930.66
2018-03-19T07:47:02.535Z,100927.11
2018-03-19T07:48:05.877Z,100933.60
2018-03-19T07:49:10.398Z,100939.63
2018-03-19T07:50:13.797Z,100935.27
2018-03-19T07:51:17.268Z,100938.27
2018-03-19T07:52:20.608Z,100939.95
2018-03-19T07:53:24.020Z,100941.66
2018-03-19T07:54:27.373Z,100936.42
2018-03-19T07:55:30.782Z,100937.32
2018-03-19T07:56:34.263Z,100939.57
2018-03-19T07:57:37.626Z,100934.38
2018-03-19T07:58:40.958Z,100936.53
2018-03-19T07:59:44.335Z,100931.34
2018-03-19T08:00:47.645Z,100940.89
2018-03-19T08:01:52.085Z,100938.22
2018-03-19T08:02:55.501Z,100933.38
2018-03-19T08:03:58.827Z,100937.66
2018-03-19T08:05:02.414Z,100933.30
2018-03-19T08:06:05.813Z,100940.25
2018-03-19T08:07:09.185Z,100937.64
2018-03-19T08:08:13.003Z,100937.66
2018-03-19T08:09:16.388Z,100935.48
2018-03-19T08:10:19.875Z,100939.45
2018-03-19T08:11:24.577Z,100945.45
2018-03-19T08:12:29.284Z,100946.77
2018-03-19T08:13:32.613Z,100951.21
2018-03-19T08:14:36.066Z,100939.07
2018-03-19T08:15:39.423Z,100943.82
2018-03-19T08:16:42.860Z,100949.82
2018-03-19T08:17:46.228Z,100952.37
2018-03-19T08:18:49.548Z,100947.05
2018-03-19T08:19:52.887Z,100946.95
2018-03-19T08:20:56.412Z,100948.14
2018-03-19T08:21:59.748Z,100947.65
2018-03-19T08:23:03.107Z,100949.79
2018-03-19T08:24:06.401Z,100947.09
2018-03-19T08:25:10.424Z,100947.84
2018-03-19T08:26:13.724Z,100943.80
2018-03-19T08:27:17.110Z,100947.16
2018-03-19T08:28:20.483Z,100943.98
2018-03-19T08:29:23.833Z,100935.52
2018-03-19T08:30:27.193Z,100937.10
2018-03-19T08:31:30.555Z,100938.67
2018-03-19T08:32:33.999Z,100931.64
2018-03-19T08:33:37.336Z,100934.57
2018-03-19T08:34:40.681Z,100925.32
2018-03-19T08:35:44.861Z,100927.39
2018-03-19T08:36:48.244Z,100936.02
2018-03-19T08:37:51.528Z,100934.68
2018-03-19T08:38:54.883Z,100932.92
2018-03-19T08:39:58.227Z,100940.21
2018-03-19T08:41:02.367Z,100944.09
2018-03-19T08:42:05.754Z,100940.62
2018-03-19T08:43:09.449Z,100951.48
2018-03-19T08:44:13.013Z,100947.59
2018-03-19T08:45:16.388Z,100943.66
2018-03-19T08:46:19.905Z,100942.78
2018-03-19T08:47:23.244Z,100944.02
2018-03-19T08:48:26.554Z,100952.68
2018-03-19T08:49:29.902Z,100950.45
2018-03-19T08:50:33.227Z,100944.42
2018-03-19T08:51:37.412Z,100956.59
2018-03-19T08:52:40.922Z,100967.50
2018-03-19T08:53:44.259Z,100958.39
2018-03-19T08:54:48.162Z,100955.41
2018-03-19T08:55:51.508Z,100958.14
2018-03-19T08:56:55.269Z,100955.22
2018-03-19T08:57:59.796Z,100953.48
2018-03-19T08:59:03.165Z,100951.73
2018-03-19T09:00:06.526Z,100956.50
2018-03-19T09:01:10.347Z,100950.88
2018-03-19T09:02:15.688Z,100959.51
2018-03-19T09:03:18.997Z,100966.00
2018-03-19T09:04:22.437Z,100950.77
2018-03-19T09:05:25.744Z,100952.95
2018-03-19T09:06:29.065Z,100951.17
2018-03-19T09:07:32.438Z,100941.53
2018-03-19T09:08:36.394Z,100950.20
2018-03-19T09:09:39.793Z,100941.79
2018-03-19T09:10:43.085Z,100953.37
2018-03-19T09:11:46.400Z,100960.69
2018-03-19T09:12:49.736Z,100947.52
2018-03-19T09:13:53.136Z,100949.97
2018-03-19T09:14:56.634Z,100951.19
2018-03-19T09:15:59.949Z,100948.95
2018-03-19T09:17:03.366Z,100950.64
2018-03-19T09:18:06.819Z,100944.49
2018-03-19T09:19:10.128Z,100950.14
2018-03-19T09:20:13.468Z,100951.45
2018-03-19T09:21:16.788Z,100953.61
2018-03-19T09:22:20.147Z,100960.66
2018-03-19T09:23:23.538Z,100954.25
2018-03-19T09:24:26.862Z,100955.23
2018-03-19T09:25:30.172Z,100953.06
2018-03-19T09:26:33.492Z,100960.48
2018-03-19T09:27:36.814Z,100958.77
2018-03-19T09:28:40.182Z,100962.22
2018-03-19T09:29:44.341Z,100966.13
2018-03-19T09:30:47.712Z,100962.33
2018-03-19T09:31:51.009Z,100963.67
2018-03-19T09:32:54.380Z,100962.02
2018-03-19T09:33:58.335Z,100966.83
2018-03-19T09:35:02.138Z,100954.67
2018-03-19T09:36:05.467Z,100961.61
2018-03-19T09:37:08.770Z,100974.62
2018-03-19T09:38:12.142Z,100964.92
2018-03-19T09:39:15.523Z,100971.36
2018-03-19T09:40:18.840Z,100968.72
2018-03-19T09:41:22.162Z,100960.03
2018-03-19T09:42:25.500Z,100968.30
2018-03-19T09:43:33.180Z,100963.62
2018-03-19T09:44:36.516Z,100966.16
2018-03-19T09:45:39.852Z,100960.89
2018-03-19T09:46:43.348Z,100961.25
2018-03-19T09:47:46.617Z,100973.42
2018-03-19T09:48:49.922Z,100976.50
2018-03-19T09:49:53.275Z,100966.06
2018-03-19T09:50:56.668Z,100971.67
2018-03-19T09:52:00.004Z,100984.74
2018-03-19T09:53:03.345Z,100965.55
2018-03-19T09:54:06.708Z,100968.05
2018-03-19T09:55:10.041Z,100967.00
2018-03-19T09:56:13.412Z,100976.43
2018-03-19T09:57:16.773Z,100979.35
2018-03-19T09:58:20.117Z,100974.44
2018-03-19T09:59:23.463Z,100972.16
2018-03-19T10:00:26.871Z,100971.66
2018-03-19T10:01:30.230Z,100963.64
2018-03-19T10:02:34.848Z,100976.64
2018-03-19T10:03:38.161Z,100983.97
2018-03-19T10:04:41.524Z,100981.75
2018-03-19T10:05:44.852Z,100973.85
2018-03-19T10:06:48.179Z,100986.91
2018-03-19T10:07:51.504Z,100977.73
2018-03-19T10:08:54.908Z,100991.62
2018-03-19T10:09:58.250Z,100988.08
2018-03-19T10:11:01.612Z,100987.73
2018-03-19T10:12:04.944Z,100981.67
2018-03-19T10:13:08.349Z,100980.77
2018-03-19T10:14:11.727Z,100985.00
2018-03-19T10:15:15.070Z,100988.84
2018-03-19T10:16:18.443Z,100980.08
2018-03-19T10:17:21.811Z,100991.84
2018-03-19T10:18:25.117Z,100985.31
2018-03-19T10:19:28.500Z,100985.72
2018-03-19T10:20:31.884Z,100987.84
2018-03-19T10:21:35.728Z,100981.67
2018-03-19T10:22:39.058Z,100978.95
2018-03-19T10:23:42.421Z,100977.52
2018-03-19T10:24:45.848Z,100983.83
2018-03-19T10:25:49.286Z,100989.81
2018-03-19T10:26:52.624Z,100989.30
2018-03-19T10:27:56.011Z,100989.20
2018-03-19T10:28:59.467Z,100983.02
2018-03-19T10:30:02.772Z,100987.34
2018-03-19T10:31:06.180Z,100985.16
2018-03-19T10:32:09.535Z,100998.22
2018-03-19T10:33:12.895Z,100992.09
2018-03-19T10:34:16.244Z,100986.34
2018-03-19T10:35:19.588Z,100989.71
2018-03-19T10:36:22.931Z,100971.80
2018-03-19T10:37:26.256Z,100984.22
2018-03-19T10:38:29.640Z,100973.16
2018-03-19T10:39:33.040Z,100989.59
2018-03-19T10:40:36.396Z,100976.42
2018-03-19T10:41:39.757Z,100981.16
2018-03-19T10:42:44.311Z,100976.25
2018-03-19T10:43:48.473Z,100987.47
2018-03-19T10:44:51.863Z,100984.85
2018-03-19T10:45:55.167Z,100984.80
2018-03-19T10:46:58.576Z,100994.86
2018-03-19T10:48:01.969Z,100983.06
2018-03-19T10:49:05.326Z,100986.36
2018-03-19T10:50:08.645Z,100977.18
2018-03-19T10:51:12.073Z,100982.73
2018-03-19T10:52:15.400Z,100986.59
2018-03-19T10:53:18.885Z,100991.81
2018-03-19T10:54:22.208Z,101004.04
2018-03-19T10:55:25.522Z,100993.58
2018-03-19T10:56:28.905Z,100992.75
2018-03-19T10:57:32.999Z,100986.16
2018-03-19T10:58:36.371Z,100991.72
2018-03-19T10:59:39.888Z,100985.95
2018-03-19T11:00:43.286Z,100984.95
2018-03-19T11:01:46.673Z,100994.42
2018-03-19T11:03:09.687Z,100984.34
2018-03-19T11:04:14.993Z,100987.94
2018-03-19T11:05:23.948Z,100989.57
2018-03-19T11:06:32.854Z,100984.26
2018-03-19T11:07:41.854Z,100979.87
2018-03-19T11:08:48.642Z,100989.02
2018-03-19T11:09:52.074Z,100981.59
2018-03-19T11:10:55.391Z,100991.50
2018-03-19T11:11:58.925Z,100980.86
2018-03-19T11:13:02.175Z,100972.34
2018-03-19T11:14:05.628Z,100975.26
2018-03-19T11:15:09.078Z,100979.56
2018-03-19T11:16:12.396Z,100976.01
2018-03-19T11:17:15.730Z,100978.14
2018-03-19T11:18:19.091Z,100972.33
2018-03-19T11:19:22.437Z,100970.86
2018-03-19T11:20:25.808Z,100978.16
2018-03-19T11:21:29.113Z,100978.12
2018-03-19T11:22:32.428Z,100981.59
2018-03-19T11:23:36.976Z,100981.63
2018-03-19T11:24:40.750Z,100982.42
2018-03-19T11:25:46.281Z,100980.20
2018-03-19T11:26:49.969Z,100971.88
2018-03-19T11:27:54.288Z,100970.48
2018-03-19T11:28:57.681Z,100972.11
2018-03-19T11:30:00.980Z,100972.02
2018-03-19T11:31:04.350Z,100985.78
2018-03-19T11:32:07.999Z,100985.39
2018-03-19T11:33:11.417Z,100968.23
2018-03-19T11:34:14.745Z,100965.09
2018-03-19T11:35:18.131Z,100961.93
2018-03-19T11:36:23.792Z,100968.85
2018-03-19T11:37:28.353Z,100964.81
2018-03-19T11:38:31.650Z,100966.13
2018-03-19T11:39:35.049Z,100959.55
2018-03-19T11:40:38.595Z,100959.86
2018-03-19T11:41:41.921Z,100950.70
2018-03-19T11:42:45.339Z,100960.41
2018-03-19T11:43:48.646Z,100955.24
2018-03-19T11:44:52.075Z,100951.83
2018-03-19T11:45:57.080Z,100947.95
2018-03-19T11:47:00.945Z,100961.12
2018-03-19T11:48:04.452Z,100947.16
2018-03-19T11:49:07.865Z,100947.92
2018-03-19T11:50:12.732Z,100955.22
2018-03-19T11:51:17.141Z,100949.84
2018-03-19T11:52:20.673Z,100958.95
2018-03-19T11:53:24.036Z,100952.81
2018-03-19T11:54:27.391Z,100953.61
2018-03-19T11:55:30.694Z,100958.36
2018-03-19T11:56:34.024Z,100958.68
2018-03-19T11:57:37.396Z,100965.57
2018-03-19T11:58:40.752Z,100955.92
2018-03-19T11:59:44.090Z,100957.18
2018-03-19T12:00:50.229Z,100956.23
2018-03-19T12:01:53.753Z,100955.87
2018-03-19T12:02:57.339Z,100946.64
2018-03-19T12:04:00.733Z,100960.14
2018-03-19T12:05:04.076Z,100959.69
2018-03-19T12:06:07.440Z,100952.70